sensor_id;sensor_type;location;lat;lon;timestamp;pressure;altitude;pressure_sealevel;temperature
74449;BMP280;62878;51.026;4.472;2022-12-13T00:01:57;-5917.56;;;13.03
74449;BMP280;62878;51.026;4.472;2022-12-13T00:04:23;-5917.56;;;13.03
74449;BMP280;62878;51.026;4.472;2022-12-13T00:06:49;-5917.41;;;13.02
74449;BMP280;62878;51.026;4.472;2022-12-13T00:09:16;-5918.16;;;13.07
74449;BMP280;62878;51.026;4.472;2022-12-13T00:11:42;-5915.03;;;12.88
74449;BMP280;62878;51.026;4.472;2022-12-13T00:14:08;-5919.25;;;13.13
74449;BMP280;62878;51.026;4.472;2022-12-13T00:16:35;-5919.75;;;13.16
74449;BMP280;62878;51.026;4.472;2022-12-13T00:19:00;-5919.25;;;13.13
74449;BMP280;62878;51.026;4.472;2022-12-13T00:21:30;-5919.09;;;13.12
74449;BMP280;62878;51.026;4.472;2022-12-13T00:23:57;-5919.00;;;13.12
74449;BMP280;62878;51.026;4.472;2022-12-13T00:26:28;-5918.75;;;13.10
74449;BMP280;62878;51.026;4.472;2022-12-13T00:28:54;-5917.56;;;13.03
74449;BMP280;62878;51.026;4.472;2022-12-13T00:31:22;-5917.75;;;13.04
74449;BMP280;62878;51.026;4.472;2022-12-13T00:33:47;-5917.91;;;13.05
74449;BMP280;62878;51.026;4.472;2022-12-13T00:36:13;-5918.25;;;13.07
74449;BMP280;62878;51.026;4.472;2022-12-13T00:38:39;-5917.06;;;13.00
74449;BMP280;62878;51.026;4.472;2022-12-13T00:41:15;-5919.44;;;13.14
74449;BMP280;62878;51.026;4.472;2022-12-13T00:43:41;-5915.22;;;12.89
74449;BMP280;62878;51.026;4.472;2022-12-13T00:46:15;-5918.31;;;13.08
74449;BMP280;62878;51.026;4.472;2022-12-13T00:48:42;-5917.66;;;13.04
74449;BMP280;62878;51.026;4.472;2022-12-13T00:51:10;-5917.81;;;13.05
74449;BMP280;62878;51.026;4.472;2022-12-13T00:53:35;-5916.38;;;12.96
74449;BMP280;62878;51.026;4.472;2022-12-13T00:56:02;-5914.19;;;12.83
74449;BMP280;62878;51.026;4.472;2022-12-13T00:58:27;-5917.06;;;13.00
74449;BMP280;62878;51.026;4.472;2022-12-13T01:01:00;-5918.16;;;13.07
74449;BMP280;62878;51.026;4.472;2022-12-13T01:03:25;-5918.06;;;13.06
74449;BMP280;62878;51.026;4.472;2022-12-13T01:05:51;-5914.19;;;12.83
74449;BMP280;62878;51.026;4.472;2022-12-13T01:08:16;-5918.16;;;13.07
74449;BMP280;62878;51.026;4.472;2022-12-13T01:10:43;-5915.22;;;12.89
74449;BMP280;62878;51.026;4.472;2022-12-13T01:13:10;-5913.78;;;12.80
74449;BMP280;62878;51.026;4.472;2022-12-13T01:15:43;-5916.38;;;12.96
74449;BMP280;62878;51.026;4.472;2022-12-13T01:18:09;-5912.19;;;12.71
74449;BMP280;62878;51.026;4.472;2022-12-13T01:20:36;-5916.22;;;12.95
74449;BMP280;62878;51.026;4.472;2022-12-13T01:23:02;-5917.06;;;13.00
74449;BMP280;62878;51.026;4.472;2022-12-13T01:25:27;-5916.31;;;12.96
74449;BMP280;62878;51.026;4.472;2022-12-13T01:27:52;-5911.16;;;12.65
74449;BMP280;62878;51.026;4.472;2022-12-13T01:30:18;-5916.66;;;12.98
74449;BMP280;62878;51.026;4.472;2022-12-13T01:32:43;-5914.13;;;12.82
74449;BMP280;62878;51.026;4.472;2022-12-13T01:35:09;-5914.38;;;12.84
74449;BMP280;62878;51.026;4.472;2022-12-13T01:37:34;-5915.88;;;12.93
74449;BMP280;62878;51.026;4.472;2022-12-13T01:40:02;-5913.69;;;12.80
74449;BMP280;62878;51.026;4.472;2022-12-13T01:42:28;-5912.50;;;12.73
74449;BMP280;62878;51.026;4.472;2022-12-13T01:45:19;-5904.75;;;12.26
74449;BMP280;62878;51.026;4.472;2022-12-13T01:47:48;-5914.53;;;12.85
74449;BMP280;62878;51.026;4.472;2022-12-13T01:50:28;-5913.19;;;12.77
74449;BMP280;62878;51.026;4.472;2022-12-13T01:52:55;-5915.56;;;12.91
74449;BMP280;62878;51.026;4.472;2022-12-13T01:55:22;-5916.22;;;12.95
74449;BMP280;62878;51.026;4.472;2022-12-13T01:57:49;-5915.88;;;12.93
74449;BMP280;62878;51.026;4.472;2022-12-13T02:00:16;-5915.28;;;12.89
74449;BMP280;62878;51.026;4.472;2022-12-13T02:02:42;-5914.78;;;12.86
74449;BMP280;62878;51.026;4.472;2022-12-13T02:05:24;-5914.47;;;12.84
74449;BMP280;62878;51.026;4.472;2022-12-13T02:07:52;-5913.28;;;12.77
74449;BMP280;62878;51.026;4.472;2022-12-13T02:10:17;-5914.13;;;12.82
74449;BMP280;62878;51.026;4.472;2022-12-13T02:12:43;-5911.84;;;12.69
74449;BMP280;62878;51.026;4.472;2022-12-13T02:15:13;-5915.03;;;12.88
74449;BMP280;62878;51.026;4.472;2022-12-13T02:17:51;-5915.38;;;12.90
74449;BMP280;62878;51.026;4.472;2022-12-13T02:26:53;-5914.38;;;12.84
74449;BMP280;62878;51.026;4.472;2022-12-13T02:35:04;-5913.19;;;12.77
74449;BMP280;62878;51.026;4.472;2022-12-13T02:38:32;-5914.88;;;12.87
74449;BMP280;62878;51.026;4.472;2022-12-13T02:40:37;-5915.72;;;12.92
74449;BMP280;62878;51.026;4.472;2022-12-13T02:45:46;-5914.63;;;12.85
74449;BMP280;62878;51.026;4.472;2022-12-13T02:48:14;-5913.19;;;12.77
74449;BMP280;62878;51.026;4.472;2022-12-13T02:50:42;-5912.78;;;12.74
74449;BMP280;62878;51.026;4.472;2022-12-13T02:53:08;-5912.84;;;12.75
74449;BMP280;62878;51.026;4.472;2022-12-13T02:55:37;-5912.50;;;12.73
74449;BMP280;62878;51.026;4.472;2022-12-13T02:58:02;-5912.19;;;12.71
74449;BMP280;62878;51.026;4.472;2022-12-13T03:03:41;-5914.28;;;12.83
74449;BMP280;62878;51.026;4.472;2022-12-13T03:08:58;-5914.63;;;12.85
74449;BMP280;62878;51.026;4.472;2022-12-13T03:11:57;-5913.53;;;12.79
74449;BMP280;62878;51.026;4.472;2022-12-13T03:14:50;-5913.09;;;12.76
74449;BMP280;62878;51.026;4.472;2022-12-13T03:17:19;-5911.50;;;12.67
74449;BMP280;62878;51.026;4.472;2022-12-13T03:19:44;-5910.25;;;12.59
74449;BMP280;62878;51.026;4.472;2022-12-13T03:22:10;-5912.34;;;12.72
74449;BMP280;62878;51.026;4.472;2022-12-13T03:24:35;-5913.94;;;12.81
74449;BMP280;62878;51.026;4.472;2022-12-13T03:27:00;-5913.34;;;12.78
74449;BMP280;62878;51.026;4.472;2022-12-13T03:29:26;-5914.63;;;12.85
74449;BMP280;62878;51.026;4.472;2022-12-13T03:31:52;-5913.94;;;12.81
74449;BMP280;62878;51.026;4.472;2022-12-13T03:34:18;-5912.59;;;12.73
74449;BMP280;62878;51.026;4.472;2022-12-13T03:36:44;-5913.69;;;12.80
74449;BMP280;62878;51.026;4.472;2022-12-13T03:39:09;-5912.19;;;12.71
74449;BMP280;62878;51.026;4.472;2022-12-13T03:41:34;-5911.75;;;12.68
74449;BMP280;62878;51.026;4.472;2022-12-13T03:44:05;-5904.59;;;12.25
74449;BMP280;62878;51.026;4.472;2022-12-13T03:46:31;-5908.31;;;12.48
74449;BMP280;62878;51.026;4.472;2022-12-13T03:48:56;-5912.34;;;12.72
74449;BMP280;62878;51.026;4.472;2022-12-13T03:51:22;-5910.16;;;12.59
74449;BMP280;62878;51.026;4.472;2022-12-13T03:53:47;-5913.19;;;12.77
74449;BMP280;62878;51.026;4.472;2022-12-13T03:56:12;-5913.34;;;12.78
74449;BMP280;62878;51.026;4.472;2022-12-13T03:58:38;-5913.19;;;12.77
74449;BMP280;62878;51.026;4.472;2022-12-13T04:01:08;-5912.19;;;12.71
74449;BMP280;62878;51.026;4.472;2022-12-13T04:03:35;-5910.16;;;12.59
74449;BMP280;62878;51.026;4.472;2022-12-13T04:06:00;-5906.88;;;12.39
74449;BMP280;62878;51.026;4.472;2022-12-13T04:08:25;-5910.66;;;12.62
74449;BMP280;62878;51.026;4.472;2022-12-13T04:10:51;-5907.38;;;12.42
74449;BMP280;62878;51.026;4.472;2022-12-13T04:13:16;-5912.25;;;12.71
74449;BMP280;62878;51.026;4.472;2022-12-13T04:15:56;-5910.00;;;12.58
74449;BMP280;62878;51.026;4.472;2022-12-13T04:18:22;-5913.09;;;12.76
74449;BMP280;62878;51.026;4.472;2022-12-13T04:20:47;-5910.66;;;12.62
74449;BMP280;62878;51.026;4.472;2022-12-13T04:23:13;-5913.09;;;12.76
74449;BMP280;62878;51.026;4.472;2022-12-13T04:25:39;-5911.84;;;12.69
74449;BMP280;62878;51.026;4.472;2022-12-13T04:28:05;-5907.78;;;12.44
74449;BMP280;62878;51.026;4.472;2022-12-13T04:30:31;-5910.00;;;12.58
74449;BMP280;62878;51.026;4.472;2022-12-13T04:32:57;-5910.31;;;12.60
74449;BMP280;62878;51.026;4.472;2022-12-13T04:35:23;-5904.25;;;12.23
74449;BMP280;62878;51.026;4.472;2022-12-13T04:37:48;-5910.41;;;12.60
74449;BMP280;62878;51.026;4.472;2022-12-13T04:40:14;-5912.09;;;12.70
74449;BMP280;62878;51.026;4.472;2022-12-13T04:42:39;-5912.69;;;12.74
74449;BMP280;62878;51.026;4.472;2022-12-13T04:45:05;-5911.50;;;12.67
74449;BMP280;62878;51.026;4.472;2022-12-13T04:47:31;-5911.84;;;12.69
74449;BMP280;62878;51.026;4.472;2022-12-13T04:49:56;-5911.66;;;12.68
74449;BMP280;62878;51.026;4.472;2022-12-13T04:52:21;-5911.16;;;12.65
74449;BMP280;62878;51.026;4.472;2022-12-13T04:54:47;-5910.00;;;12.58
74449;BMP280;62878;51.026;4.472;2022-12-13T04:57:12;-5908.47;;;12.49
74449;BMP280;62878;51.026;4.472;2022-12-13T04:59:38;-5909.31;;;12.54
74449;BMP280;62878;51.026;4.472;2022-12-13T05:02:05;-5909.81;;;12.57
74449;BMP280;62878;51.026;4.472;2022-12-13T05:04:30;-5910.25;;;12.59
74449;BMP280;62878;51.026;4.472;2022-12-13T05:06:56;-5909.72;;;12.56
74449;BMP280;62878;51.026;4.472;2022-12-13T05:09:22;-5910.56;;;12.61
74449;BMP280;62878;51.026;4.472;2022-12-13T05:11:47;-5908.63;;;12.50
74449;BMP280;62878;51.026;4.472;2022-12-13T05:14:13;-5906.34;;;12.36
74449;BMP280;62878;51.026;4.472;2022-12-13T05:16:38;-5910.31;;;12.60
74449;BMP280;62878;51.026;4.472;2022-12-13T05:19:03;-5907.38;;;12.42
74449;BMP280;62878;51.026;4.472;2022-12-13T05:21:29;-5908.47;;;12.49
74449;BMP280;62878;51.026;4.472;2022-12-13T05:23:54;-5908.88;;;12.51
74449;BMP280;62878;51.026;4.472;2022-12-13T05:26:19;-5910.16;;;12.59
74449;BMP280;62878;51.026;4.472;2022-12-13T05:28:44;-5910.31;;;12.60
74449;BMP280;62878;51.026;4.472;2022-12-13T05:31:11;-5911.00;;;12.64
74449;BMP280;62878;51.026;4.472;2022-12-13T05:33:36;-5910.75;;;12.62
74449;BMP280;62878;51.026;4.472;2022-12-13T05:36:03;-5910.56;;;12.61
74449;BMP280;62878;51.026;4.472;2022-12-13T05:38:29;-5910.84;;;12.63
74449;BMP280;62878;51.026;4.472;2022-12-13T05:40:55;-5910.41;;;12.60
74449;BMP280;62878;51.026;4.472;2022-12-13T05:43:20;-5908.47;;;12.49
74449;BMP280;62878;51.026;4.472;2022-12-13T05:45:48;-5904.84;;;12.27
74449;BMP280;62878;51.026;4.472;2022-12-13T05:48:13;-5907.13;;;12.40
74449;BMP280;62878;51.026;4.472;2022-12-13T05:50:39;-5906.53;;;12.37
74449;BMP280;62878;51.026;4.472;2022-12-13T05:53:05;-5909.91;;;12.57
74449;BMP280;62878;51.026;4.472;2022-12-13T05:55:30;-5910.06;;;12.58
74449;BMP280;62878;51.026;4.472;2022-12-13T05:57:57;-5910.41;;;12.60
74449;BMP280;62878;51.026;4.472;2022-12-13T06:00:22;-5905.25;;;12.29
74449;BMP280;62878;51.026;4.472;2022-12-13T06:02:47;-5910.00;;;12.58
74449;BMP280;62878;51.026;4.472;2022-12-13T06:05:13;-5909.16;;;12.53
74449;BMP280;62878;51.026;4.472;2022-12-13T06:07:38;-5906.94;;;12.39
74449;BMP280;62878;51.026;4.472;2022-12-13T06:10:05;-5907.78;;;12.44
74449;BMP280;62878;51.026;4.472;2022-12-13T06:12:33;-5907.97;;;12.46
74449;BMP280;62878;51.026;4.472;2022-12-13T06:14:59;-5909.16;;;12.53
74449;BMP280;62878;51.026;4.472;2022-12-13T06:17:24;-5906.03;;;12.34
74449;BMP280;62878;51.026;4.472;2022-12-13T06:19:50;-5910.84;;;12.63
74449;BMP280;62878;51.026;4.472;2022-12-13T06:22:16;-5910.06;;;12.58
74449;BMP280;62878;51.026;4.472;2022-12-13T06:24:41;-5909.72;;;12.56
74449;BMP280;62878;51.026;4.472;2022-12-13T06:27:07;-5908.97;;;12.52
74449;BMP280;62878;51.026;4.472;2022-12-13T06:29:32;-5907.78;;;12.44
74449;BMP280;62878;51.026;4.472;2022-12-13T06:31:59;-5906.78;;;12.38
74449;BMP280;62878;51.026;4.472;2022-12-13T06:34:26;-5906.44;;;12.36
74449;BMP280;62878;51.026;4.472;2022-12-13T06:36:51;-5908.13;;;12.47
74449;BMP280;62878;51.026;4.472;2022-12-13T06:39:17;-5908.97;;;12.52
74449;BMP280;62878;51.026;4.472;2022-12-13T06:41:43;-5906.88;;;12.39
74449;BMP280;62878;51.026;4.472;2022-12-13T06:44:08;-5908.63;;;12.50
74449;BMP280;62878;51.026;4.472;2022-12-13T06:46:33;-5909.56;;;12.55
74449;BMP280;62878;51.026;4.472;2022-12-13T06:48:59;-5908.72;;;12.50
74449;BMP280;62878;51.026;4.472;2022-12-13T06:51:25;-5907.28;;;12.41
74449;BMP280;62878;51.026;4.472;2022-12-13T06:53:51;-5905.78;;;12.32
74449;BMP280;62878;51.026;4.472;2022-12-13T06:56:16;-5906.94;;;12.39
74449;BMP280;62878;51.026;4.472;2022-12-13T06:58:41;-5903.41;;;12.18
74449;BMP280;62878;51.026;4.472;2022-12-13T07:01:15;-5907.97;;;12.46
74449;BMP280;62878;51.026;4.472;2022-12-13T07:03:42;-5908.31;;;12.48
74449;BMP280;62878;51.026;4.472;2022-12-13T07:06:11;-5908.47;;;12.49
74449;BMP280;62878;51.026;4.472;2022-12-13T07:08:37;-5908.47;;;12.49
74449;BMP280;62878;51.026;4.472;2022-12-13T07:11:02;-5905.94;;;12.33
74449;BMP280;62878;51.026;4.472;2022-12-13T07:13:28;-5908.38;;;12.48
74449;BMP280;62878;51.026;4.472;2022-12-13T07:15:55;-5906.78;;;12.38
74449;BMP280;62878;51.026;4.472;2022-12-13T07:18:20;-5907.38;;;12.42
74449;BMP280;62878;51.026;4.472;2022-12-13T07:20:45;-5905.25;;;12.29
74449;BMP280;62878;51.026;4.472;2022-12-13T07:23:12;-5901.72;;;12.08
74449;BMP280;62878;51.026;4.472;2022-12-13T07:25:38;-5904.09;;;12.22
74449;BMP280;62878;51.026;4.472;2022-12-13T07:28:06;-5907.63;;;12.43
74449;BMP280;62878;51.026;4.472;2022-12-13T07:30:33;-5904.41;;;12.24
74449;BMP280;62878;51.026;4.472;2022-12-13T07:33:00;-5908.38;;;12.48
74449;BMP280;62878;51.026;4.472;2022-12-13T07:35:26;-5905.44;;;12.30
74449;BMP280;62878;51.026;4.472;2022-12-13T07:37:52;-5907.63;;;12.43
74449;BMP280;62878;51.026;4.472;2022-12-13T07:40:17;-5906.63;;;12.37
74449;BMP280;62878;51.026;4.472;2022-12-13T07:42:50;-5905.84;;;12.33
74449;BMP280;62878;51.026;4.472;2022-12-13T07:45:15;-5903.75;;;12.20
74449;BMP280;62878;51.026;4.472;2022-12-13T07:47:41;-5906.28;;;12.35
74449;BMP280;62878;51.026;4.472;2022-12-13T07:50:06;-5906.94;;;12.39
74449;BMP280;62878;51.026;4.472;2022-12-13T07:52:32;-5907.19;;;12.41
74449;BMP280;62878;51.026;4.472;2022-12-13T07:54:57;-5905.00;;;12.28
74449;BMP280;62878;51.026;4.472;2022-12-13T07:57:22;-5907.97;;;12.46
74449;BMP280;62878;51.026;4.472;2022-12-13T07:59:48;-5907.97;;;12.46
74449;BMP280;62878;51.026;4.472;2022-12-13T08:02:13;-5906.94;;;12.39
74449;BMP280;62878;51.026;4.472;2022-12-13T08:04:38;-5905.09;;;12.28
74449;BMP280;62878;51.026;4.472;2022-12-13T08:07:07;-5905.25;;;12.29
74449;BMP280;62878;51.026;4.472;2022-12-13T08:09:33;-5900.88;;;12.03
74449;BMP280;62878;51.026;4.472;2022-12-13T08:11:59;-5905.59;;;12.31
74449;BMP280;62878;51.026;4.472;2022-12-13T08:14:24;-5905.84;;;12.33
74449;BMP280;62878;51.026;4.472;2022-12-13T08:16:50;-5903.56;;;12.19
74449;BMP280;62878;51.026;4.472;2022-12-13T08:19:15;-5904.59;;;12.25
74449;BMP280;62878;51.026;4.472;2022-12-13T08:21:40;-5905.44;;;12.30
74449;BMP280;62878;51.026;4.472;2022-12-13T08:24:06;-5906.19;;;12.35
74449;BMP280;62878;51.026;4.472;2022-12-13T08:26:33;-5907.38;;;12.42
74449;BMP280;62878;51.026;4.472;2022-12-13T08:28:58;-5904.16;;;12.23
74449;BMP280;62878;51.026;4.472;2022-12-13T08:31:24;-5906.63;;;12.37
74449;BMP280;62878;51.026;4.472;2022-12-13T08:33:49;-5905.94;;;12.33
74449;BMP280;62878;51.026;4.472;2022-12-13T08:36:16;-5907.78;;;12.44
74449;BMP280;62878;51.026;4.472;2022-12-13T08:38:45;-5907.47;;;12.42
74449;BMP280;62878;51.026;4.472;2022-12-13T08:41:11;-5906.19;;;12.35
74449;BMP280;62878;51.026;4.472;2022-12-13T08:43:36;-5904.94;;;12.27
74449;BMP280;62878;51.026;4.472;2022-12-13T08:46:02;-5905.94;;;12.33
74449;BMP280;62878;51.026;4.472;2022-12-13T08:48:28;-5905.50;;;12.31
74449;BMP280;62878;51.026;4.472;2022-12-13T08:50:53;-5903.91;;;12.21
74449;BMP280;62878;51.026;4.472;2022-12-13T08:53:19;-5902.91;;;12.15
74449;BMP280;62878;51.026;4.472;2022-12-13T08:55:44;-5905.94;;;12.33
74449;BMP280;62878;51.026;4.472;2022-12-13T08:58:09;-5900.88;;;12.03
74449;BMP280;62878;51.026;4.472;2022-12-13T09:00:35;-5906.44;;;12.36
74449;BMP280;62878;51.026;4.472;2022-12-13T09:03:02;-5907.38;;;12.42
74449;BMP280;62878;51.026;4.472;2022-12-13T09:05:28;-5907.78;;;12.44
74449;BMP280;62878;51.026;4.472;2022-12-13T09:07:55;-5910.00;;;12.58
74449;BMP280;62878;51.026;4.472;2022-12-13T09:10:21;-5906.94;;;12.39
74449;BMP280;62878;51.026;4.472;2022-12-13T09:12:46;-5906.94;;;12.39
74449;BMP280;62878;51.026;4.472;2022-12-13T09:15:11;-5908.72;;;12.50
74449;BMP280;62878;51.026;4.472;2022-12-13T09:17:37;-5904.69;;;12.26
74449;BMP280;62878;51.026;4.472;2022-12-13T09:20:04;-5835.84;;;8.13
74449;BMP280;62878;51.026;4.472;2022-12-13T09:22:29;-5803.47;;;6.19
74449;BMP280;62878;51.026;4.472;2022-12-13T09:24:54;-5837.78;;;8.25
74449;BMP280;62878;51.026;4.472;2022-12-13T09:27:20;-5863.09;;;9.77
74449;BMP280;62878;51.026;4.472;2022-12-13T09:29:45;-5867.75;;;10.04
74449;BMP280;62878;51.026;4.472;2022-12-13T09:32:11;-5883.69;;;11.00
74449;BMP280;62878;51.026;4.472;2022-12-13T09:34:36;-5885.38;;;11.10
74449;BMP280;62878;51.026;4.472;2022-12-13T09:37:02;-5886.03;;;11.14
74449;BMP280;62878;51.026;4.472;2022-12-13T09:39:27;-5892.03;;;11.50
74449;BMP280;62878;51.026;4.472;2022-12-13T09:41:55;-5891.53;;;11.47
74449;BMP280;62878;51.026;4.472;2022-12-13T09:44:25;-5894.97;;;11.68
74449;BMP280;62878;51.026;4.472;2022-12-13T09:46:51;-5842.25;;;8.52
74449;BMP280;62878;51.026;4.472;2022-12-13T09:51:51;-5855.75;;;9.33
74449;BMP280;62878;51.026;4.472;2022-12-13T09:54:20;-5868.66;;;10.10
74449;BMP280;62878;51.026;4.472;2022-12-13T09:56:47;-5878.28;;;10.68
74449;BMP280;62878;51.026;4.472;2022-12-13T09:59:15;-5883.34;;;10.98
74449;BMP280;62878;51.026;4.472;2022-12-13T10:01:41;-5881.31;;;10.86
74449;BMP280;62878;51.026;4.472;2022-12-13T10:04:10;-5888.47;;;11.29
74449;BMP280;62878;51.026;4.472;2022-12-13T10:06:37;-5890.59;;;11.41
74449;BMP280;62878;51.026;4.472;2022-12-13T10:09:05;-5891.28;;;11.45
74449;BMP280;62878;51.026;4.472;2022-12-13T10:11:32;-5891.78;;;11.48
74449;BMP280;62878;51.026;4.472;2022-12-13T10:13:59;-5893.03;;;11.56
74449;BMP280;62878;51.026;4.472;2022-12-13T10:16:27;-5892.97;;;11.56
74449;BMP280;62878;51.026;4.472;2022-12-13T10:18:55;-5891.78;;;11.48
74449;BMP280;62878;51.026;4.472;2022-12-13T10:21:24;-5892.53;;;11.53
74449;BMP280;62878;51.026;4.472;2022-12-13T10:23:51;-5893.72;;;11.60
74449;BMP280;62878;51.026;4.472;2022-12-13T10:26:17;-5893.78;;;11.61
74449;BMP280;62878;51.026;4.472;2022-12-13T10:28:42;-5896.66;;;11.78
74449;BMP280;62878;51.026;4.472;2022-12-13T10:31:15;-5897.09;;;11.80
74449;BMP280;62878;51.026;4.472;2022-12-13T10:33:51;-5898.19;;;11.87
74449;BMP280;62878;51.026;4.472;2022-12-13T10:36:35;-5898.03;;;11.86
74449;BMP280;62878;51.026;4.472;2022-12-13T10:39:03;-5898.44;;;11.88
74449;BMP280;62878;51.026;4.472;2022-12-13T10:41:33;-5897.69;;;11.84
74449;BMP280;62878;51.026;4.472;2022-12-13T10:44:20;-5898.59;;;11.89
74449;BMP280;62878;51.026;4.472;2022-12-13T10:46:51;-5898.19;;;11.87
74449;BMP280;62878;51.026;4.472;2022-12-13T10:49:21;-5897.84;;;11.85
74449;BMP280;62878;51.026;4.472;2022-12-13T10:51:47;-5897.69;;;11.84
74449;BMP280;62878;51.026;4.472;2022-12-13T10:54:35;-5896.75;;;11.78
74449;BMP280;62878;51.026;4.472;2022-12-13T10:57:01;-5900.22;;;11.99
74449;BMP280;62878;51.026;4.472;2022-12-13T10:59:33;-5893.13;;;11.57
74449;BMP280;62878;51.026;4.472;2022-12-13T11:02:00;-5900.97;;;12.04
74449;BMP280;62878;51.026;4.472;2022-12-13T11:04:31;-5901.72;;;12.08
74449;BMP280;62878;51.026;4.472;2022-12-13T11:07:23;-5901.47;;;12.07
74449;BMP280;62878;51.026;4.472;2022-12-13T11:09:49;-5901.72;;;12.08
74449;BMP280;62878;51.026;4.472;2022-12-13T11:12:20;-5901.56;;;12.07
74449;BMP280;62878;51.026;4.472;2022-12-13T11:14:59;-5900.88;;;12.03
74449;BMP280;62878;51.026;4.472;2022-12-13T11:17:28;-5900.78;;;12.03
74449;BMP280;62878;51.026;4.472;2022-12-13T11:20:06;-5900.03;;;11.98
74449;BMP280;62878;51.026;4.472;2022-12-13T11:22:39;-5900.78;;;12.03
74449;BMP280;62878;51.026;4.472;2022-12-13T11:25:18;-5902.66;;;12.14
74449;BMP280;62878;51.026;4.472;2022-12-13T11:30:28;-5903.56;;;12.19
74449;BMP280;62878;51.026;4.472;2022-12-13T11:36:03;-5904.25;;;12.23
74449;BMP280;62878;51.026;4.472;2022-12-13T11:39:13;-5904.09;;;12.22
74449;BMP280;62878;51.026;4.472;2022-12-13T11:42:00;-5903.50;;;12.19
74449;BMP280;62878;51.026;4.472;2022-12-13T11:47:28;-5902.06;;;12.10
74449;BMP280;62878;51.026;4.472;2022-12-13T11:49:58;-5902.56;;;12.13
74449;BMP280;62878;51.026;4.472;2022-12-13T11:52:33;-5903.16;;;12.17
74449;BMP280;62878;51.026;4.472;2022-12-13T11:55:03;-5904.25;;;12.23
74449;BMP280;62878;51.026;4.472;2022-12-13T11:57:41;-5904.59;;;12.25
74449;BMP280;62878;51.026;4.472;2022-12-13T12:00:32;-5905.44;;;12.30
74449;BMP280;62878;51.026;4.472;2022-12-13T12:05:34;-5905.78;;;12.32
74449;BMP280;62878;51.026;4.472;2022-12-13T12:08:39;-5903.00;;;12.16
74449;BMP280;62878;51.026;4.472;2022-12-13T12:13:50;-5904.75;;;12.26
74449;BMP280;62878;51.026;4.472;2022-12-13T12:16:24;-5905.34;;;12.30
74449;BMP280;62878;51.026;4.472;2022-12-13T12:18:51;-5901.81;;;12.09
74449;BMP280;62878;51.026;4.472;2022-12-13T12:26:32;-5904.41;;;12.24
74449;BMP280;62878;51.026;4.472;2022-12-13T12:50:30;-5905.44;;;12.30
74449;BMP280;62878;51.026;4.472;2022-12-13T12:53:08;-5905.25;;;12.29
74449;BMP280;62878;51.026;4.472;2022-12-13T12:55:47;-5903.56;;;12.19
74449;BMP280;62878;51.026;4.472;2022-12-13T12:58:22;-5906.88;;;12.39
74449;BMP280;62878;51.026;4.472;2022-12-13T13:03:40;-5907.13;;;12.40
74449;BMP280;62878;51.026;4.472;2022-12-13T13:06:13;-5906.78;;;12.38
74449;BMP280;62878;51.026;4.472;2022-12-13T13:11:16;-5907.19;;;12.41
74449;BMP280;62878;51.026;4.472;2022-12-13T13:18:57;-5906.63;;;12.37
74449;BMP280;62878;51.026;4.472;2022-12-13T13:26:49;-5905.94;;;12.33
74449;BMP280;62878;51.026;4.472;2022-12-13T13:29:26;-5906.94;;;12.39
74449;BMP280;62878;51.026;4.472;2022-12-13T13:34:40;-5908.31;;;12.48
74449;BMP280;62878;51.026;4.472;2022-12-13T13:43:01;-5908.88;;;12.51
74449;BMP280;62878;51.026;4.472;2022-12-13T13:45:27;-5906.28;;;12.35
74449;BMP280;62878;51.026;4.472;2022-12-13T13:48:12;-5908.31;;;12.48
74449;BMP280;62878;51.026;4.472;2022-12-13T14:01:43;-5907.78;;;12.44
74449;BMP280;62878;51.026;4.472;2022-12-13T14:04:28;-5908.31;;;12.48
74449;BMP280;62878;51.026;4.472;2022-12-13T14:27:05;-5905.94;;;12.33
74449;BMP280;62878;51.026;4.472;2022-12-13T14:29:37;-5907.13;;;12.40
74449;BMP280;62878;51.026;4.472;2022-12-13T14:32:20;-5907.78;;;12.44
74449;BMP280;62878;51.026;4.472;2022-12-13T14:34:45;-5908.97;;;12.52
74449;BMP280;62878;51.026;4.472;2022-12-13T14:37:25;-5908.47;;;12.49
74449;BMP280;62878;51.026;4.472;2022-12-13T14:39:53;-5902.56;;;12.13
74449;BMP280;62878;51.026;4.472;2022-12-13T14:42:24;-5908.31;;;12.48
74449;BMP280;62878;51.026;4.472;2022-12-13T14:44:51;-5907.63;;;12.43
74449;BMP280;62878;51.026;4.472;2022-12-13T14:47:17;-5908.56;;;12.49
74449;BMP280;62878;51.026;4.472;2022-12-13T14:49:43;-5906.94;;;12.39
74449;BMP280;62878;51.026;4.472;2022-12-13T14:52:32;-5905.19;;;12.29
74449;BMP280;62878;51.026;4.472;2022-12-13T14:55:01;-5902.91;;;12.15
74449;BMP280;62878;51.026;4.472;2022-12-13T14:57:32;-5906.88;;;12.39
74449;BMP280;62878;51.026;4.472;2022-12-13T14:59:59;-5907.97;;;12.46
74449;BMP280;62878;51.026;4.472;2022-12-13T15:02:31;-5908.97;;;12.52
74449;BMP280;62878;51.026;4.472;2022-12-13T15:04:59;-5904.09;;;12.22
74449;BMP280;62878;51.026;4.472;2022-12-13T15:07:34;-5908.31;;;12.48
74449;BMP280;62878;51.026;4.472;2022-12-13T15:10:14;-5909.16;;;12.53
74449;BMP280;62878;51.026;4.472;2022-12-13T15:12:42;-5909.31;;;12.54
74449;BMP280;62878;51.026;4.472;2022-12-13T15:15:21;-5908.97;;;12.52
74449;BMP280;62878;51.026;4.472;2022-12-13T15:17:46;-5908.81;;;12.51
74449;BMP280;62878;51.026;4.472;2022-12-13T15:20:22;-5907.78;;;12.44
74449;BMP280;62878;51.026;4.472;2022-12-13T15:22:59;-5906.88;;;12.39
74449;BMP280;62878;51.026;4.472;2022-12-13T15:25:26;-5906.19;;;12.35
74449;BMP280;62878;51.026;4.472;2022-12-13T15:27:53;-5907.88;;;12.45
74449;BMP280;62878;51.026;4.472;2022-12-13T15:30:19;-5906.94;;;12.39
74449;BMP280;62878;51.026;4.472;2022-12-13T15:33:04;-5908.97;;;12.52
74449;BMP280;62878;51.026;4.472;2022-12-13T15:35:31;-5907.88;;;12.45
74449;BMP280;62878;51.026;4.472;2022-12-13T15:37:57;-5908.13;;;12.47
74449;BMP280;62878;51.026;4.472;2022-12-13T15:40:22;-5908.81;;;12.51
74449;BMP280;62878;51.026;4.472;2022-12-13T15:42:49;-5908.63;;;12.50
74449;BMP280;62878;51.026;4.472;2022-12-13T15:45:25;-5907.97;;;12.46
74449;BMP280;62878;51.026;4.472;2022-12-13T15:47:52;-5907.72;;;12.44
74449;BMP280;62878;51.026;4.472;2022-12-13T15:53:14;-5905.25;;;12.29
74449;BMP280;62878;51.026;4.472;2022-12-13T15:55:41;-5906.94;;;12.39
74449;BMP280;62878;51.026;4.472;2022-12-13T16:00:48;-5906.88;;;12.39
74449;BMP280;62878;51.026;4.472;2022-12-13T16:03:17;-5908.63;;;12.50
74449;BMP280;62878;51.026;4.472;2022-12-13T16:05:47;-5899.94;;;11.97
74449;BMP280;62878;51.026;4.472;2022-12-13T16:08:36;-5908.97;;;12.52
74449;BMP280;62878;51.026;4.472;2022-12-13T16:11:03;-5908.13;;;12.47
74449;BMP280;62878;51.026;4.472;2022-12-13T16:13:34;-5908.22;;;12.47
74449;BMP280;62878;51.026;4.472;2022-12-13T16:18:51;-5905.78;;;12.32
74449;BMP280;62878;51.026;4.472;2022-12-13T16:21:16;-5906.28;;;12.35
74449;BMP280;62878;51.026;4.472;2022-12-13T16:23:41;-5907.28;;;12.41
74449;BMP280;62878;51.026;4.472;2022-12-13T16:26:11;-5904.41;;;12.24